Time;durP1;ratioP1;P1;durP2;ratioP2;P2;SDS_P1;SDS_P2;PMS_P1;PMS_P2;Temp;Humidity;BMP_temperature;BMP_pressure;BME280_temperature;BME280_humidity;BME280_pressure;Samples;Min_cycle;Max_cycle;Signal;HPM_P1;HPM_P2
2023/07/03 00:02:00;;;;;;;10.23;3.80;;;;;;;13.45;100.00;99893.53;7368640;19;20440;-43
2023/07/03 00:04:35;;;;;;;19.10;5.10;;;;;;;13.41;100.00;99881.34;7394175;19;20441;-43
2023/07/03 00:07:06;;;;;;;15.70;4.30;;;;;;;13.39;100.00;99882.16;7369197;19;20438;-42
2023/07/03 00:09:35;;;;;;;15.07;6.23;;;;;;;13.38;100.00;99873.50;7394402;19;20756;-44
2023/07/03 00:12:05;;;;;;;18.00;6.07;;;;;;;13.39;100.00;99875.28;7370278;19;20534;-43
2023/07/03 00:14:35;;;;;;;12.50;4.63;;;;;;;13.39;100.00;99874.41;7392666;19;20510;-42
2023/07/03 00:17:07;;;;;;;14.70;5.57;;;;;;;13.41;100.00;99871.00;7367563;19;20505;-42
2023/07/03 00:19:37;;;;;;;15.27;3.70;;;;;;;13.40;100.00;99873.53;7391790;19;20427;-44
2023/07/03 00:22:08;;;;;;;8.77;4.27;;;;;;;13.39;100.00;99866.63;7369571;19;20430;-42
2023/07/03 00:24:37;;;;;;;11.30;4.63;;;;;;;13.37;100.00;99859.72;7393338;19;20514;-42
2023/07/03 00:27:08;;;;;;;11.73;4.47;;;;;;;13.39;100.00;99862.31;7367046;19;20479;-42
2023/07/03 00:29:37;;;;;;;11.63;4.53;;;;;;;13.36;100.00;99857.09;7393544;19;20413;-43
2023/07/03 00:32:10;;;;;;;14.00;5.43;;;;;;;13.36;100.00;99857.97;7367664;19;20541;-46
2023/07/03 00:34:39;;;;;;;16.37;4.93;;;;;;;13.37;100.00;99861.41;7392836;19;20444;-44
2023/07/03 00:37:09;;;;;;;12.00;3.83;;;;;;;13.44;100.00;99849.44;7369058;19;20453;-43
2023/07/03 00:39:39;;;;;;;12.57;4.60;;;;;;;13.45;100.00;99844.28;7394710;19;20741;-42
2023/07/03 00:42:09;;;;;;;19.80;6.63;;;;;;;13.47;100.00;99844.31;7366535;19;20533;-43
2023/07/03 00:44:39;;;;;;;16.03;6.10;;;;;;;13.45;100.00;99843.41;7392709;19;20518;-44
2023/07/03 00:47:12;;;;;;;14.13;4.93;;;;;;;13.44;100.00;99844.25;7367587;19;20432;-42
2023/07/03 00:49:42;;;;;;;18.10;4.33;;;;;;;13.43;100.00;99826.97;7395719;19;20413;-43
2023/07/03 00:52:14;;;;;;;27.33;10.30;;;;;;;13.43;100.00;99834.75;7367570;19;20525;-42
2023/07/03 00:54:44;;;;;;;16.63;6.57;;;;;;;13.41;100.00;99826.06;7392690;19;20452;-42
2023/07/03 00:57:17;;;;;;;25.27;8.30;;;;;;;13.45;100.00;99828.75;7368539;19;21124;-43
2023/07/03 00:59:47;;;;;;;14.80;4.53;;;;;;;13.43;100.00;99835.59;7393782;19;20427;-42
2023/07/03 01:02:22;;;;;;;11.50;3.93;;;;;;;13.38;100.00;99834.66;7367583;19;20518;-44
2023/07/03 01:04:57;;;;;;;13.40;4.90;;;;;;;13.34;100.00;99828.56;7392766;19;20466;-43
2023/07/03 01:07:29;;;;;;;13.53;4.50;;;;;;;13.35;100.00;99824.25;7366989;19;20452;-43
2023/07/03 01:10:02;;;;;;;14.77;5.80;;;;;;;13.37;100.00;99831.22;7395580;19;20425;-44
2023/07/03 01:12:33;;;;;;;11.23;4.07;;;;;;;13.34;100.00;99828.56;7367801;19;20446;-42
2023/07/03 01:15:05;;;;;;;14.80;5.83;;;;;;;13.32;100.00;99845.81;7391033;19;20454;-44
2023/07/03 01:17:41;;;;;;;14.10;6.10;;;;;;;13.33;100.00;99857.06;7368400;19;20834;-43
2023/07/03 01:20:17;;;;;;;9.63;4.37;;;;;;;13.35;100.00;99851.00;7392729;19;20417;-43
2023/07/03 01:22:50;;;;;;;9.40;3.97;;;;;;;13.31;100.00;99859.59;7371059;19;20449;-43
2023/07/03 01:25:24;;;;;;;16.40;5.30;;;;;;;13.26;100.00;99835.34;7370080;19;21149;-42
2023/07/03 01:27:55;;;;;;;13.43;4.23;;;;;;;13.28;100.00;99838.81;7391519;19;20411;-42
2023/07/03 01:30:25;;;;;;;15.93;4.60;;;;;;;13.31;100.00;99840.59;7366697;19;20419;-43
2023/07/03 01:32:56;;;;;;;16.77;3.80;;;;;;;13.30;100.00;99841.44;7392927;19;20960;-42
2023/07/03 01:35:27;;;;;;;7.07;2.90;;;;;;;13.32;100.00;99835.44;7368304;19;20834;-42
2023/07/03 01:37:58;;;;;;;15.37;4.20;;;;;;;13.37;100.00;99831.22;7390639;19;20414;-43
2023/07/03 01:40:30;;;;;;;14.43;4.30;;;;;;;13.37;100.00;99828.63;7368088;19;20411;-43
2023/07/03 01:43:00;;;;;;;9.43;4.23;;;;;;;13.40;100.00;99834.69;7393511;19;20957;-42
2023/07/03 01:45:30;;;;;;;11.50;3.03;;;;;;;13.40;100.00;99837.28;7365830;19;20517;-42
2023/07/03 01:48:00;;;;;;;14.23;4.00;;;;;;;13.41;100.00;99837.31;7391839;19;20402;-43
2023/07/03 01:50:31;;;;;;;9.90;4.23;;;;;;;13.45;100.00;99827.84;7369959;19;20410;-43
2023/07/03 01:53:03;;;;;;;13.53;3.90;;;;;;;13.46;100.00;99829.63;7392393;19;20419;-42
2023/07/03 01:55:39;;;;;;;10.23;3.70;;;;;;;13.43;100.00;99826.97;7374328;19;20453;-42
2023/07/03 01:58:13;;;;;;;11.93;4.43;;;;;;;13.40;100.00;99822.63;7396169;19;20414;-42
2023/07/03 02:00:46;;;;;;;14.93;4.13;;;;;;;13.36;100.00;99826.88;7373154;19;20418;-44
2023/07/03 02:03:21;;;;;;;13.77;4.40;;;;;;;13.34;100.00;99825.97;7396090;19;20427;-42
2023/07/03 02:05:51;;;;;;;12.00;3.40;;;;;;;13.33;100.00;99815.59;7374088;19;20496;-42
2023/07/03 02:08:22;;;;;;;10.50;4.20;;;;;;;13.24;100.00;99809.41;7397327;19;20414;-40
2023/07/03 02:10:55;;;;;;;12.13;4.43;;;;;;;13.31;100.00;99815.56;7374576;19;20402;-43
2023/07/03 02:13:25;;;;;;;13.67;4.20;;;;;;;13.32;100.00;99819.00;7395905;19;20493;-42
2023/07/03 02:15:55;;;;;;;12.27;4.30;;;;;;;13.31;100.00;99832.81;7374608;19;20409;-41
2023/07/03 02:18:25;;;;;;;10.47;4.10;;;;;;;13.29;100.00;99845.78;7398300;19;20429;-42
2023/07/03 02:20:55;;;;;;;15.33;3.90;;;;;;;13.25;100.00;99843.97;7373872;19;20408;-43
2023/07/03 02:23:24;;;;;;;11.00;4.30;;;;;;;13.23;100.00;99835.31;7396698;19;20413;-42
2023/07/03 02:25:57;;;;;;;19.00;4.50;;;;;;;13.20;100.00;99835.25;7372597;19;20437;-44
2023/07/03 02:28:26;;;;;;;14.93;4.63;;;;;;;13.16;100.00;99833.44;7397418;19;20413;-42
2023/07/03 02:30:56;;;;;;;13.40;4.43;;;;;;;13.18;100.00;99826.59;7373702;19;20805;-44
2023/07/03 02:33:26;;;;;;;24.70;4.00;;;;;;;13.18;100.00;99829.19;7395419;19;20985;-43
2023/07/03 02:35:55;;;;;;;14.83;4.10;;;;;;;13.15;100.00;99830.00;7372190;19;20788;-44
2023/07/03 02:38:25;;;;;;;9.43;3.37;;;;;;;13.17;100.00;99830.88;7395419;19;20791;-43
2023/07/03 02:40:57;;;;;;;12.13;3.83;;;;;;;13.27;100.00;99821.53;7372676;19;20509;-43
2023/07/03 02:43:27;;;;;;;11.13;4.30;;;;;;;13.26;100.00;99830.16;7398133;19;20426;-43
2023/07/03 02:45:57;;;;;;;14.07;4.93;;;;;;;13.23;100.00;99818.03;7371941;19;20430;-44
2023/07/03 02:48:26;;;;;;;10.30;4.70;;;;;;;13.22;100.00;99815.41;7395942;19;20413;-43
2023/07/03 02:50:58;;;;;;;18.63;4.17;;;;;;;13.25;100.00;99815.47;7374610;19;21251;-44
2023/07/03 02:53:28;;;;;;;15.93;5.00;;;;;;;13.28;100.00;99822.44;7395500;19;20805;-43
2023/07/03 02:56:00;;;;;;;11.00;4.07;;;;;;;13.25;100.00;99810.28;7372605;19;20542;-44
2023/07/03 02:58:30;;;;;;;12.23;4.57;;;;;;;13.25;100.00;99820.66;7398750;19;20781;-43
2023/07/03 03:01:01;;;;;;;14.30;4.70;;;;;;;13.28;100.00;99815.50;7372040;19;20556;-43
2023/07/03 03:03:30;;;;;;;13.10;5.40;;;;;;;13.33;100.00;99825.97;7396764;19;20411;-42
2023/07/03 03:06:00;;;;;;;15.00;4.30;;;;;;;13.34;100.00;99831.16;7372180;19;20449;-42
2023/07/03 03:08:30;;;;;;;14.83;4.13;;;;;;;13.36;100.00;99831.19;7395654;19;20486;-43
2023/07/03 03:11:02;;;;;;;9.73;3.90;;;;;;;13.36;100.00;99826.88;7372174;19;20438;-43
2023/07/03 03:13:32;;;;;;;10.20;3.80;;;;;;;13.33;100.00;99832.00;7396860;19;20415;-42
2023/07/03 03:16:02;;;;;;;15.83;5.13;;;;;;;13.32;100.00;99825.06;7372776;19;20458;-43
2023/07/03 03:18:31;;;;;;;19.43;4.40;;;;;;;13.29;100.00;99819.88;7394551;19;20618;-43
2023/07/03 03:21:01;;;;;;;12.97;4.40;;;;;;;13.28;100.00;99812.06;7371831;19;20421;-43
2023/07/03 03:23:30;;;;;;;11.57;4.57;;;;;;;13.28;100.00;99818.09;7394731;19;20515;-44
2023/07/03 03:26:05;;;;;;;11.73;4.23;;;;;;;13.31;100.00;99822.47;7371706;19;20459;-43
2023/07/03 03:28:35;;;;;;;14.83;4.20;;;;;;;13.29;100.00;99834.53;7395433;19;20744;-42
2023/07/03 03:31:05;;;;;;;12.87;4.53;;;;;;;13.33;100.00;99829.41;7370643;19;20504;-43
2023/07/03 03:33:35;;;;;;;16.67;5.03;;;;;;;13.38;100.00;99834.66;7396780;19;20403;-44
2023/07/03 03:36:04;;;;;;;8.20;3.07;;;;;;;13.36;100.00;99826.88;7369829;19;20450;-43
2023/07/03 03:38:36;;;;;;;10.80;3.90;;;;;;;13.41;100.00;99828.66;7395008;19;20461;-43
2023/07/03 03:41:08;;;;;;;13.37;4.17;;;;;;;13.38;100.00;99829.47;7369689;19;20562;-43
2023/07/03 03:43:38;;;;;;;14.63;4.50;;;;;;;13.36;100.00;99832.06;7394903;19;20428;-43
2023/07/03 03:46:08;;;;;;;8.53;3.50;;;;;;;13.41;100.00;99836.41;7368614;19;20427;-43
2023/07/03 03:48:37;;;;;;;15.63;4.30;;;;;;;13.41;100.00;99829.53;7397007;19;20427;-43
2023/07/03 03:51:07;;;;;;;13.10;5.00;;;;;;;13.40;100.00;99827.78;7369615;19;20455;-42
2023/07/03 03:53:37;;;;;;;13.03;5.03;;;;;;;13.40;100.00;99826.91;7395931;19;20490;-40
2023/07/03 03:56:09;;;;;;;21.07;5.73;;;;;;;13.40;100.00;99827.78;7369498;19;20422;-43
2023/07/03 03:58:38;;;;;;;15.73;5.03;;;;;;;13.45;100.00;99836.50;7395127;19;20776;-43
2023/07/03 04:01:08;;;;;;;11.67;4.17;;;;;;;13.45;100.00;99826.16;7369135;19;20424;-43
2023/07/03 04:03:38;;;;;;;13.67;4.30;;;;;;;13.47;100.00;99829.66;7393695;19;20495;-43
2023/07/03 04:06:08;;;;;;;15.60;5.33;;;;;;;13.48;100.00;99831.41;7367699;19;20456;-44
2023/07/03 04:08:38;;;;;;;15.10;5.00;;;;;;;13.48;100.00;99812.38;7395214;19;20411;-43
2023/07/03 04:11:10;;;;;;;15.30;3.97;;;;;;;13.49;100.00;99819.31;7369283;19;20907;-42
2023/07/03 04:13:40;;;;;;;13.93;4.40;;;;;;;13.53;100.00;99818.50;7393322;19;20414;-43
2023/07/03 04:16:10;;;;;;;14.83;3.97;;;;;;;13.54;100.00;99819.38;7365016;19;20423;-44
2023/07/03 04:18:40;;;;;;;11.30;4.10;;;;;;;13.53;100.00;99818.50;7393664;19;20416;-42
2023/07/03 04:21:10;;;;;;;10.43;3.50;;;;;;;13.62;100.00;99828.13;7368473;19;20506;-43
2023/07/03 04:23:40;;;;;;;13.00;4.00;;;;;;;13.66;100.00;99829.03;7393389;19;20415;-44
2023/07/03 04:26:12;;;;;;;19.90;5.10;;;;;;;13.67;100.00;99833.38;7368971;19;20489;-42
2023/07/03 04:28:41;;;;;;;12.70;4.60;;;;;;;13.72;100.00;99829.13;7394214;19;20407;-42
2023/07/03 04:31:11;;;;;;;15.20;4.60;;;;;;;13.70;100.00;99829.09;7368961;19;20435;-43
2023/07/03 04:33:43;;;;;;;16.43;4.60;;;;;;;13.77;100.00;99832.66;7393248;19;20482;-42
2023/07/03 04:36:13;;;;;;;15.37;5.07;;;;;;;13.77;100.00;99832.66;7369180;19;20516;-42
2023/07/03 04:38:43;;;;;;;11.90;4.27;;;;;;;13.74;100.00;99838.69;7394629;19;20496;-44
2023/07/03 04:41:16;;;;;;;13.60;4.87;;;;;;;13.77;100.00;99832.66;7368531;19;20502;-43
2023/07/03 04:43:48;;;;;;;10.30;4.40;;;;;;;13.80;100.00;99832.72;7392691;19;20935;-42
2023/07/03 04:46:25;;;;;;;13.23;5.40;;;;;;;13.76;100.00;99824.00;7368913;19;20418;-43
2023/07/03 04:48:59;;;;;;;14.90;5.57;;;;;;;13.73;100.00;99823.09;7394534;19;20411;-42
2023/07/03 04:51:30;;;;;;;17.30;5.57;;;;;;;13.76;100.00;99821.41;7368891;19;20422;-43
2023/07/03 04:54:03;;;;;;;9.33;2.60;;;;;;;13.83;100.00;99821.50;7393830;19;20410;-42
2023/07/03 04:56:36;;;;;;;11.53;4.50;;;;;;;13.86;100.00;99811.19;7366577;19;20434;-42
2023/07/03 04:59:06;;;;;;;12.20;4.37;;;;;;;13.91;100.00;99825.09;7392481;19;20418;-42
2023/07/03 05:01:35;;;;;;;19.77;5.60;;;;;;;13.94;100.00;99826.84;7368633;19;20452;-42
2023/07/03 05:04:05;;;;;;;13.43;4.67;;;;;;;13.91;100.00;99820.75;7393760;19;20431;-43
2023/07/03 05:06:35;;;;;;;13.30;4.83;;;;;;;13.98;100.00;99818.25;7367691;19;20426;-42
2023/07/03 05:09:05;;;;;;;11.83;4.87;;;;;;;13.98;100.00;99818.25;7393823;19;20502;-40
2023/07/03 05:11:38;;;;;;;11.13;4.13;;;;;;;14.01;100.00;99813.09;7368441;19;20484;-42
2023/07/03 05:14:07;;;;;;;14.10;4.67;;;;;;;14.06;100.00;99808.84;7392822;19;20482;-43
2023/07/03 05:16:37;;;;;;;18.03;5.63;;;;;;;14.11;100.00;99811.50;7368824;19;20425;-42
2023/07/03 05:19:06;;;;;;;9.43;4.30;;;;;;;14.12;100.00;99814.13;7392038;19;20392;-43
2023/07/03 05:21:36;;;;;;;12.90;5.20;;;;;;;14.21;100.00;99808.19;7366274;19;20853;-43
2023/07/03 05:24:06;;;;;;;10.97;4.70;;;;;;;14.20;100.00;99805.56;7390666;19;20427;-43
2023/07/03 05:26:39;;;;;;;16.47;5.00;;;;;;;14.23;100.00;99801.28;7367985;19;20888;-43
2023/07/03 05:29:09;;;;;;;14.00;4.63;;;;;;;14.26;100.00;99805.63;7397861;19;20478;-42
2023/07/03 05:31:38;;;;;;;12.63;5.10;;;;;;;14.30;100.00;99810.84;7372995;19;20415;-42
2023/07/03 05:34:08;;;;;;;21.60;4.80;;;;;;;14.38;100.00;99810.06;7397197;19;20803;-43
2023/07/03 05:36:38;;;;;;;8.20;3.17;;;;;;;14.34;100.00;99829.94;7375041;19;20555;-42
2023/07/03 05:39:07;;;;;;;8.23;3.17;;;;;;;14.40;100.00;99824.81;7397916;19;20433;-43
2023/07/03 05:41:39;;;;;;;16.00;5.40;;;;;;;14.46;100.00;99829.19;7374843;19;20874;-40
2023/07/03 05:44:09;;;;;;;19.03;5.40;;;;;;;14.58;100.00;99829.31;7390844;19;20403;-42
2023/07/03 05:46:39;;;;;;;14.00;4.73;;;;;;;14.61;100.00;99835.41;7374882;19;20434;-43
2023/07/03 05:49:08;;;;;;;21.37;5.43;;;;;;;14.68;100.00;99842.41;7397834;19;20388;-40
2023/07/03 05:51:38;;;;;;;14.30;5.00;;;;;;;14.79;100.00;99848.63;7373805;19;20427;-44
2023/07/03 05:54:07;;;;;;;14.80;5.50;;;;;;;14.86;100.00;99836.53;7397306;19;20414;-43
2023/07/03 05:56:41;;;;;;;17.07;5.60;;;;;;;14.82;100.00;99852.97;7374389;19;20510;-43
2023/07/03 05:59:11;;;;;;;21.40;10.70;;;;;;;14.80;100.00;99839.97;7397154;19;20471;-43
2023/07/03 06:01:41;;;;;;;15.60;4.57;;;;;;;14.74;100.00;99845.09;7374535;19;20423;-43
2023/07/03 06:04:11;;;;;;;10.13;3.47;;;;;;;14.64;100.00;99851.88;7396232;19;20466;-42
2023/07/03 06:06:41;;;;;;;12.53;4.50;;;;;;;14.76;100.00;99847.72;7373839;19;20525;-41
2023/07/03 06:09:11;;;;;;;17.27;3.87;;;;;;;14.87;100.00;99859.06;7399807;19;20419;-42
2023/07/03 06:11:43;;;;;;;13.40;4.33;;;;;;;15.03;100.00;99873.06;7373320;19;20442;-44
2023/07/03 06:14:16;;;;;;;13.13;4.10;;;;;;;15.12;100.00;99867.97;7398684;19;20422;-43
2023/07/03 06:16:46;;;;;;;16.43;3.13;;;;;;;15.14;100.00;99862.78;7374341;19;20419;-44
2023/07/03 06:19:17;;;;;;;9.90;2.70;;;;;;;15.06;100.00;99872.22;7396267;19;20782;-43
2023/07/03 06:21:47;;;;;;;12.03;3.47;;;;;;;15.17;100.00;99867.13;7373562;19;20513;-43
2023/07/03 06:24:17;;;;;;;10.63;2.97;;;;;;;15.24;100.00;99877.56;7399277;19;20473;-45
2023/07/03 06:26:50;;;;;;;12.80;3.90;;;;;;;15.17;100.00;99859.34;7371066;19;20431;-44
2023/07/03 06:29:19;;;;;;;15.07;3.70;;;;;;;15.25;100.00;99860.28;7399833;19;20549;-44
2023/07/03 06:31:52;;;;;;;16.03;4.90;;;;;;;15.34;100.00;99859.47;7373779;19;20439;-42
2023/07/03 06:34:21;;;;;;;15.90;4.20;;;;;;;15.37;100.00;99869.88;7396680;19;20435;-42
2023/07/03 06:36:51;;;;;;;11.17;3.43;;;;;;;15.36;100.00;99870.75;7371552;19;20522;-43
2023/07/03 06:39:21;;;;;;;13.60;3.63;;;;;;;15.31;100.00;99868.13;7391434;19;20768;-43
2023/07/03 06:41:53;;;;;;;19.83;5.73;;;;;;;15.37;100.00;99872.47;7373230;19;20755;-44
2023/07/03 06:44:23;;;;;;;18.73;5.57;;;;;;;15.38;100.00;99869.91;7396758;19;20427;-44
2023/07/03 06:46:53;;;;;;;22.83;7.97;;;;;;;15.45;100.00;99870.84;7371544;19;20435;-44
2023/07/03 06:49:24;;;;;;;10.57;3.80;;;;;;;15.42;100.00;99865.59;7399148;19;20414;-43
2023/07/03 06:51:54;;;;;;;25.70;7.80;;;;;;;15.41;100.00;99863.84;7372928;19;20435;-43
2023/07/03 06:54:23;;;;;;;16.23;3.23;;;;;;;15.58;100.00;99870.91;7395568;19;20972;-43
2023/07/03 06:56:56;;;;;;;16.77;5.43;;;;;;;15.63;100.00;99890.00;7372610;19;20422;-43
2023/07/03 06:59:25;;;;;;;18.37;5.03;;;;;;;15.45;100.00;99894.22;7397314;19;20408;-44
2023/07/03 07:01:55;;;;;;;19.40;7.23;;;;;;;15.41;100.00;99895.03;7372793;19;20418;-42
2023/07/03 07:04:27;;;;;;;19.40;7.37;;;;;;;15.42;100.00;99907.19;7395175;19;20461;-43
2023/07/03 07:06:58;;;;;;;13.17;4.03;;;;;;;15.29;100.00;99894.94;7372004;19;20443;-42
2023/07/03 07:09:28;;;;;;;16.60;5.40;;;;;;;15.19;100.00;99894.88;7398222;19;20395;-42
2023/07/03 07:12:00;;;;;;;20.00;4.47;;;;;;;15.49;100.00;99893.38;7370673;19;20511;-44
2023/07/03 07:14:30;;;;;;;20.83;6.57;;;;;;;15.72;100.00;99918.69;7396891;19;20509;-43
2023/07/03 07:17:00;;;;;;;20.00;4.27;;;;;;;16.01;100.00;99928.41;7372893;19;20433;-44
2023/07/03 07:19:30;;;;;;;15.57;5.07;;;;;;;16.18;100.00;99936.34;7395749;19;20412;-43
2023/07/03 07:21:59;;;;;;;18.60;4.17;;;;;;;16.23;100.00;99941.56;7370110;19;20442;-43
2023/07/03 07:24:29;;;;;;;8.93;3.23;;;;;;;16.13;100.00;99929.38;7395139;19;20432;-43
2023/07/03 07:27:02;;;;;;;13.40;3.67;;;;;;;15.81;100.00;99920.47;7372056;19;20565;-44
2023/07/03 07:29:32;;;;;;;13.10;4.87;;;;;;;15.72;100.00;99890.06;7398087;19;20410;-43
2023/07/03 07:32:02;;;;;;;15.70;4.60;;;;;;;15.56;100.00;99876.09;7371585;19;20502;-44
2023/07/03 07:34:31;;;;;;;12.00;3.50;;;;;;;15.56;100.00;99862.22;7394655;19;20442;-43
2023/07/03 07:37:01;;;;;;;8.80;3.37;;;;;;;15.58;100.00;99897.78;7371003;19;20435;-43
2023/07/03 07:39:30;;;;;;;18.33;5.90;;;;;;;15.55;100.00;99915.97;7395210;19;20415;-43
2023/07/03 07:42:03;;;;;;;10.37;3.27;;;;;;;15.45;100.00;99909.81;7368970;19;20419;-44
2023/07/03 07:44:33;;;;;;;15.40;5.23;;;;;;;15.44;100.00;99900.25;7391106;19;20515;-45
2023/07/03 07:47:03;;;;;;;16.57;3.00;;;;;;;15.43;100.00;99890.72;7370439;19;20439;-43
2023/07/03 07:49:33;;;;;;;12.57;2.87;;;;;;;15.54;100.00;99896.03;7395425;19;20411;-42
2023/07/03 07:52:02;;;;;;;18.23;4.47;;;;;;;15.55;100.00;99871.78;7370395;19;20415;-42
2023/07/03 07:54:32;;;;;;;35.50;13.83;;;;;;;15.61;100.00;99894.31;7393994;19;20845;-42
2023/07/03 07:57:04;;;;;;;20.63;6.30;;;;;;;15.98;100.00;99904.13;7370153;19;20435;-43
2023/07/03 07:59:36;;;;;;;21.90;8.83;;;;;;;16.24;100.00;99901.66;7394101;19;20415;-43
2023/07/03 08:02:05;;;;;;;13.10;3.67;;;;;;;16.45;100.00;99920.84;7369282;19;20495;-42
2023/07/03 08:04:35;;;;;;;12.90;3.50;;;;;;;16.47;100.00;99942.56;7393243;19;20435;-43
2023/07/03 08:07:05;;;;;;;10.60;3.50;;;;;;;16.63;100.00;99968.66;7368971;19;20454;-42
2023/07/03 08:09:35;;;;;;;16.57;4.67;;;;;;;16.57;100.00;99972.97;7393909;19;20483;-42
2023/07/03 08:12:08;;;;;;;17.90;5.00;;;;;;;16.69;100.00;99966.06;7370552;19;20450;-41
2023/07/03 08:14:37;;;;;;;21.13;7.23;;;;;;;16.54;100.00;99980.78;7393646;19;20803;-44
2023/07/03 08:17:08;;;;;;;14.03;4.27;;;;;;;16.32;100.00;99980.66;7370006;19;20452;-43
2023/07/03 08:19:37;;;;;;;12.03;4.30;;;;;;;16.19;100.00;99948.50;7395368;19;20412;-43
2023/07/03 08:22:08;;;;;;;17.83;4.37;;;;;;;16.24;100.00;99929.44;7369009;19;20499;-43
2023/07/03 08:24:39;;;;;;;20.30;5.53;;;;;;;16.28;100.00;99919.06;7394347;19;20451;-44
2023/07/03 08:27:14;;;;;;;11.33;3.00;;;;;;;16.29;100.00;99991.06;7369353;19;20446;-43
2023/07/03 08:29:43;;;;;;;13.77;2.73;;;;;;;16.26;100.00;100000.56;7393427;19;20420;-43
2023/07/03 08:32:14;;;;;;;13.00;3.80;;;;;;;16.44;100.00;100033.66;7369463;19;20551;-33
2023/07/03 08:34:44;;;;;;;6.40;1.53;;;;;;;16.32;100.00;100052.69;7395181;19;20840;-45
2023/07/03 08:37:16;;;;;;;10.37;2.77;;;;;;;16.46;100.00;100025.00;7368639;19;20961;-42
2023/07/03 08:39:46;;;;;;;8.63;2.20;;;;;;;16.60;100.00;100014.66;7394211;19;20421;-42
2023/07/03 08:42:24;;;;;;;11.73;1.80;;;;;;;16.52;100.00;100013.75;7368614;19;20419;-43
2023/07/03 08:44:56;;;;;;;15.60;5.23;;;;;;;16.45;100.00;100009.34;7394081;19;20987;-43
2023/07/03 08:47:29;;;;;;;8.53;2.07;;;;;;;16.58;100.00;100007.69;7368893;19;20494;-43
2023/07/03 08:50:00;;;;;;;11.77;2.53;;;;;;;16.56;100.00;100067.56;7394339;19;20939;-41
2023/07/03 08:52:36;;;;;;;14.40;4.20;;;;;;;16.65;100.00;100045.03;7369243;19;20981;-43
2023/07/03 08:55:09;;;;;;;8.40;2.80;;;;;;;16.78;100.00;100026.03;7392957;19;20439;-42
2023/07/03 08:57:41;;;;;;;9.80;3.73;;;;;;;16.80;100.00;100023.41;7370134;19;20472;-42
2023/07/03 09:00:12;;;;;;;6.83;1.97;;;;;;;17.17;100.00;100038.38;7393719;19;20970;-42
2023/07/03 09:02:47;;;;;;;12.20;3.77;;;;;;;16.98;100.00;100079.97;7364721;19;21063;-43
2023/07/03 09:05:31;;;;;;;15.10;3.77;;;;;;;17.02;100.00;100040.03;7392912;19;20493;-42
2023/07/03 09:08:03;;;;;;;16.43;4.90;;;;;;;17.19;100.00;100034.03;7371756;19;21746;-42
2023/07/03 09:10:35;;;;;;;8.83;1.97;;;;;;;17.44;100.00;100023.66;7369247;19;20422;-41
2023/07/03 09:13:09;;;;;;;12.47;3.40;;;;;;;17.36;100.00;100055.78;7391323;19;20506;-43
2023/07/03 09:15:42;;;;;;;10.10;2.43;;;;;;;17.68;100.00;100047.16;7365427;19;21419;-44
2023/07/03 09:18:15;;;;;;;7.33;1.87;;;;;;;17.89;100.00;100066.28;7387754;19;20495;-42
2023/07/03 09:20:45;;;;;;;14.20;4.43;;;;;;;17.72;100.00;100128.00;7366764;19;20387;-43
2023/07/03 09:23:20;;;;;;;12.70;2.10;;;;;;;18.12;100.00;100122.91;7388089;19;20433;-43
2023/07/03 09:25:54;;;;;;;9.67;2.10;;;;;;;18.26;100.00;100153.34;7363145;19;20394;-42
2023/07/03 09:28:27;;;;;;;10.53;2.40;;;;;;;18.48;100.00;100176.00;7388996;19;20494;-42
2023/07/03 09:30:56;;;;;;;9.80;2.13;;;;;;;17.85;100.00;100207.19;7364977;19;20416;-42
2023/07/03 09:33:26;;;;;;;16.90;4.20;;;;;;;17.55;100.00;100145.34;7388605;19;20409;-43
2023/07/03 09:35:56;;;;;;;6.20;2.00;;;;;;;17.41;100.00;100069.72;7361927;19;20421;-43
2023/07/03 09:38:27;;;;;;;8.60;2.17;;;;;;;17.03;100.00;100062.66;7386700;19;20640;-44
2023/07/03 09:40:57;;;;;;;7.33;1.73;;;;;;;16.83;100.00;100055.56;7363888;19;20964;-43
2023/07/03 09:43:31;;;;;;;13.17;2.70;;;;;;;16.86;100.00;100112.00;7388305;19;21166;-44
2023/07/03 09:46:10;;;;;;;9.17;2.30;;;;;;;16.85;100.00;100142.41;7362161;19;20411;-45
2023/07/03 09:48:40;;;;;;;9.43;1.87;;;;;;;16.84;100.00;100165.84;7385980;19;20407;-44
2023/07/03 09:51:24;;;;;;;5.73;1.70;;;;;;;16.88;100.00;100184.09;7361165;19;20951;-43
2023/07/03 09:53:59;;;;;;;5.77;1.63;;;;;;;16.74;100.00;100164.91;7384065;19;20466;-43
2023/07/03 09:56:32;;;;;;;9.60;2.80;;;;;;;16.64;100.00;100143.16;7362696;19;20412;-43
2023/07/03 09:59:09;;;;;;;7.53;2.03;;;;;;;16.50;100.00;100111.78;7385850;19;20455;-43
2023/07/03 10:01:41;;;;;;;9.53;1.90;;;;;;;16.59;100.00;100114.47;7363049;19;20402;-43
2023/07/03 10:04:15;;;;;;;9.50;1.67;;;;;;;16.95;100.00;100105.97;7389639;19;20443;-43
2023/07/03 10:06:58;;;;;;;7.27;1.83;;;;;;;17.03;100.00;100093.03;7363899;19;20493;-43
2023/07/03 10:09:32;;;;;;;8.17;1.87;;;;;;;16.77;100.00;100076.34;7387701;19;20415;-43
2023/07/03 10:12:11;;;;;;;9.60;4.37;;;;;;;16.78;100.00;100043.38;7363459;19;20399;-44
2023/07/03 10:14:49;;;;;;;6.63;1.70;;;;;;;16.56;100.00;100031.13;7388942;19;20838;-44
2023/07/03 10:17:21;;;;;;;6.50;2.10;;;;;;;16.42;100.00;100038.84;7370333;19;20498;-42
2023/07/03 10:19:55;;;;;;;8.60;1.70;;;;;;;16.23;100.00;100031.78;7397274;19;20392;-43
2023/07/03 10:22:26;;;;;;;7.13;1.87;;;;;;;15.87;100.00;100001.16;7370317;19;20398;-44
2023/07/03 10:25:00;;;;;;;6.80;1.90;;;;;;;15.06;100.00;99898.19;7393313;19;20427;-44
2023/07/03 10:27:31;;;;;;;8.53;3.10;;;;;;;14.13;100.00;99903.16;7370319;19;20821;-44
2023/07/03 10:30:05;;;;;;;6.27;1.90;;;;;;;12.94;100.00;99927.19;7394980;19;20753;-43
2023/07/03 10:32:36;;;;;;;7.27;2.23;;;;;;;12.58;100.00;100155.91;7370748;19;20411;-44
2023/07/03 10:35:11;;;;;;;10.37;3.73;;;;;;;12.45;100.00;100417.75;7399578;19;20462;-43
2023/07/03 10:37:49;;;;;;;9.20;2.43;;;;;;;12.42;100.00;100522.03;7370703;19;20399;-42
2023/07/03 10:40:22;;;;;;;8.80;2.43;;;;;;;12.39;100.00;100540.03;7373538;19;20392;-42
2023/07/03 10:42:55;;;;;;;7.27;2.07;;;;;;;12.28;100.00;100525.09;7393504;19;20510;-44
2023/07/03 10:45:29;;;;;;;5.00;1.20;;;;;;;12.00;100.00;100529.34;7370034;19;20455;-42
2023/07/03 10:48:03;;;;;;;5.23;1.30;;;;;;;11.83;100.00;100517.56;7391800;19;20396;-43
2023/07/03 10:50:35;;;;;;;7.70;1.27;;;;;;;11.82;100.00;100528.72;7370137;19;20405;-43
2023/07/03 10:53:13;;;;;;;5.43;1.10;;;;;;;11.84;100.00;100512.44;7392420;19;20389;-44
2023/07/03 10:55:46;;;;;;;5.40;1.13;;;;;;;11.91;100.00;100503.19;7370188;19;20401;-44
2023/07/03 10:58:24;;;;;;;7.03;2.40;;;;;;;12.04;100.00;100477.78;7392603;19;20391;-42
2023/07/03 11:01:01;;;;;;;6.90;1.60;;;;;;;12.21;100.00;100445.53;7369084;19;20429;-43
2023/07/03 11:03:39;;;;;;;6.57;1.53;;;;;;;12.23;100.00;100420.59;7392363;19;20394;-44
2023/07/03 11:06:17;;;;;;;2.23;0.83;;;;;;;12.31;100.00;100445.81;7368045;19;20414;-43
2023/07/03 11:08:50;;;;;;;3.00;1.50;;;;;;;12.38;100.00;100427.03;7396293;19;20809;-43
2023/07/03 11:11:27;;;;;;;2.43;1.03;;;;;;;12.40;100.00;100440.91;7368568;19;20769;-41
2023/07/03 11:14:02;;;;;;;2.93;1.30;;;;;;;12.52;100.00;100441.25;7391460;19;20764;-43
2023/07/03 11:16:40;;;;;;;3.40;1.53;;;;;;;12.64;100.00;100445.91;7368704;19;20467;-43
2023/07/03 11:19:18;;;;;;;6.87;1.47;;;;;;;12.76;100.00;100471.25;7394628;19;20460;-42
2023/07/03 11:21:55;;;;;;;4.87;1.77;;;;;;;12.94;100.00;100490.72;7367695;19;20427;-44
2023/07/03 11:24:31;;;;;;;7.60;2.73;;;;;;;13.08;100.00;100510.13;7392009;19;20402;-40
2023/07/03 11:27:05;;;;;;;6.50;1.90;;;;;;;13.23;100.00;100524.34;7368456;19;20943;-43
2023/07/03 11:29:39;;;;;;;5.20;1.43;;;;;;;13.45;100.00;100538.75;7392016;19;20902;-44
2023/07/03 11:32:13;;;;;;;4.03;1.50;;;;;;;13.95;100.00;100565.06;7367719;19;20494;-43
2023/07/03 11:34:43;;;;;;;3.13;1.30;;;;;;;14.21;100.00;100590.78;7391123;19;20442;-44
2023/07/03 11:37:45;;;;;;;6.80;1.60;;;;;;;14.54;100.00;100601.06;7365096;19;20432;-43